createdAt,value
2017-09-24T00:00:35.407Z,0
2017-09-24T00:01:15.888Z,0
2017-09-24T00:01:56.257Z,0
2017-09-24T00:02:36.718Z,0
2017-09-24T00:03:17.168Z,0
2017-09-24T00:03:58.302Z,0
2017-09-24T00:04:38.710Z,0
2017-09-24T00:05:19.151Z,0
2017-09-24T00:05:59.572Z,0
2017-09-24T00:06:40.014Z,0
2017-09-24T00:07:20.438Z,0
2017-09-24T00:08:00.895Z,0
2017-09-24T00:08:41.335Z,0
2017-09-24T00:09:21.824Z,0
2017-09-24T00:10:02.199Z,0
2017-09-24T00:10:42.713Z,0
2017-09-24T00:11:23.147Z,0
2017-09-24T00:12:03.607Z,0
2017-09-24T00:12:44.034Z,0
2017-09-24T00:13:24.485Z,0
2017-09-24T00:14:04.982Z,0
2017-09-24T00:14:45.462Z,0
2017-09-24T00:15:25.860Z,0
2017-09-24T00:16:06.302Z,0
2017-09-24T00:16:46.867Z,0
2017-09-24T00:17:27.280Z,0
2017-09-24T00:18:07.716Z,0
2017-09-24T00:18:48.124Z,0
2017-09-24T00:19:28.549Z,0
2017-09-24T00:20:09.680Z,0
2017-09-24T00:20:50.106Z,0
2017-09-24T00:21:30.547Z,0
2017-09-24T00:22:10.982Z,0
2017-09-24T00:22:51.417Z,0
2017-09-24T00:23:31.859Z,0
2017-09-24T00:24:12.304Z,0
2017-09-24T00:24:52.748Z,0
2017-09-24T00:25:33.138Z,0
2017-09-24T00:26:13.605Z,0
2017-09-24T00:26:54.031Z,0
2017-09-24T00:27:34.523Z,0
2017-09-24T00:28:14.941Z,0
2017-09-24T00:28:55.394Z,0
2017-09-24T00:29:35.810Z,0
2017-09-24T00:30:16.234Z,0
2017-09-24T00:30:57.660Z,0
2017-09-24T00:31:38.123Z,0
2017-09-24T00:32:18.552Z,0
2017-09-24T00:32:59.012Z,0
2017-09-24T00:33:39.431Z,0
2017-09-24T00:34:19.913Z,0
2017-09-24T00:35:00.342Z,0
2017-09-24T00:35:40.836Z,0
2017-09-24T00:36:21.257Z,0
2017-09-24T00:37:01.709Z,0
2017-09-24T00:37:42.144Z,0
2017-09-24T00:38:22.591Z,0
2017-09-24T00:39:03.013Z,0
2017-09-24T00:39:43.461Z,0
2017-09-24T00:40:24.003Z,0
2017-09-24T00:41:04.348Z,0
2017-09-24T00:41:44.782Z,0
2017-09-24T00:42:25.212Z,0
2017-09-24T00:43:06.496Z,0
2017-09-24T00:43:46.937Z,0
2017-09-24T00:44:27.368Z,0
2017-09-24T00:45:07.800Z,0
2017-09-24T00:45:48.220Z,0
2017-09-24T00:46:28.686Z,0
2017-09-24T00:47:09.138Z,0
2017-09-24T00:47:49.608Z,0
2017-09-24T00:48:30.134Z,0
2017-09-24T00:49:10.484Z,0
2017-09-24T00:49:51.862Z,0
2017-09-24T00:50:32.322Z,0
2017-09-24T00:51:12.765Z,0
2017-09-24T00:51:53.216Z,0
2017-09-24T00:52:33.673Z,0
2017-09-24T00:53:14.155Z,0
2017-09-24T00:53:54.608Z,0
2017-09-24T00:54:35.090Z,0
2017-09-24T00:55:15.562Z,0
2017-09-24T00:55:55.989Z,0
2017-09-24T00:56:36.420Z,0
2017-09-24T00:57:16.895Z,0
2017-09-24T00:57:57.324Z,0
2017-09-24T00:58:37.772Z,0
2017-09-24T00:59:18.196Z,0
2017-09-24T00:59:58.647Z,0
2017-09-24T01:00:39.096Z,0
2017-09-24T01:03:07.006Z,0
2017-09-24T01:03:47.482Z,0
2017-09-24T01:04:27.912Z,0
2017-09-24T01:05:08.340Z,0
2017-09-24T01:07:41.299Z,0
2017-09-24T01:08:21.795Z,0
2017-09-24T01:09:02.321Z,0
2017-09-24T01:09:42.782Z,0
2017-09-24T01:10:23.231Z,0
2017-09-24T01:11:03.678Z,0
2017-09-24T01:11:44.162Z,0
2017-09-24T01:12:24.646Z,0
2017-09-24T01:13:05.130Z,0
2017-09-24T01:13:45.600Z,0
2017-09-24T01:14:26.050Z,0
2017-09-24T01:15:06.498Z,0
2017-09-24T01:15:46.966Z,0
2017-09-24T01:16:27.477Z,0
2017-09-24T01:17:07.877Z,0
2017-09-24T01:17:48.302Z,0
2017-09-24T01:18:28.748Z,0
2017-09-24T01:19:09.175Z,0
2017-09-24T01:19:49.600Z,0
2017-09-24T01:20:30.013Z,0
2017-09-24T01:21:10.469Z,0
2017-09-24T01:21:51.008Z,0
2017-09-24T01:22:31.526Z,0
2017-09-24T01:23:11.924Z,0
2017-09-24T01:23:52.374Z,0
2017-09-24T01:24:32.788Z,0
2017-09-24T01:25:13.288Z,0
2017-09-24T01:25:53.768Z,0
2017-09-24T01:26:34.220Z,0
2017-09-24T01:27:14.684Z,0
2017-09-24T01:27:55.107Z,0
2017-09-24T01:30:12.929Z,0
2017-09-24T01:30:53.369Z,0
2017-09-24T01:33:26.536Z,0
2017-09-24T01:34:06.959Z,0
2017-09-24T01:34:47.428Z,0
2017-09-24T01:35:27.883Z,0
2017-09-24T01:36:08.335Z,0
2017-09-24T01:36:48.784Z,0
2017-09-24T01:37:29.228Z,0
2017-09-24T01:38:09.699Z,0
2017-09-24T01:38:50.130Z,0
2017-09-24T01:41:18.013Z,0
2017-09-24T01:41:58.480Z,0
2017-09-24T01:42:38.933Z,0
2017-09-24T01:43:19.354Z,0
2017-09-24T01:43:59.797Z,0
2017-09-24T01:44:40.266Z,0
2017-09-24T01:45:20.792Z,0
2017-09-24T01:46:01.143Z,0
2017-09-24T01:48:34.520Z,0
2017-09-24T01:49:14.924Z,0
2017-09-24T01:49:55.395Z,0
2017-09-24T01:50:35.846Z,0
2017-09-24T01:51:16.281Z,0
2017-09-24T01:51:56.837Z,0
2017-09-24T01:52:37.316Z,0
2017-09-24T01:53:17.788Z,0
2017-09-24T01:53:58.198Z,0
2017-09-24T01:54:38.678Z,0
2017-09-24T01:55:19.137Z,0
2017-09-24T01:57:47.058Z,0
2017-09-24T01:58:27.497Z,0
2017-09-24T01:59:07.907Z,0
2017-09-24T01:59:48.366Z,0
2017-09-24T02:00:28.776Z,0
2017-09-24T02:01:09.232Z,0
2017-09-24T02:01:49.669Z,0
2017-09-24T02:02:30.097Z,0
2017-09-24T02:03:10.547Z,0
2017-09-24T02:03:50.983Z,0
2017-09-24T02:04:31.452Z,0
2017-09-24T02:05:11.914Z,0
2017-09-24T02:05:52.336Z,0
2017-09-24T02:06:32.810Z,0
2017-09-24T02:07:13.213Z,0
2017-09-24T02:07:53.653Z,0
2017-09-24T02:08:34.074Z,0
2017-09-24T02:09:14.512Z,0
2017-09-24T02:09:54.957Z,0
2017-09-24T02:10:35.384Z,0
2017-09-24T02:11:15.839Z,0
2017-09-24T02:11:56.296Z,0
2017-09-24T02:12:36.760Z,0
2017-09-24T02:13:17.174Z,0
2017-09-24T02:13:57.639Z,0
2017-09-24T02:14:38.113Z,0
2017-09-24T02:15:18.590Z,0
2017-09-24T02:15:59.026Z,0
2017-09-24T02:16:39.500Z,0
2017-09-24T02:17:19.947Z,0
2017-09-24T02:18:00.385Z,0
2017-09-24T02:18:40.799Z,0
2017-09-24T02:19:21.332Z,0
2017-09-24T02:20:01.803Z,0
2017-09-24T02:20:42.223Z,0
2017-09-24T02:21:22.639Z,0
2017-09-24T02:23:55.664Z,0
2017-09-24T02:24:36.083Z,0
2017-09-24T02:25:16.551Z,0
2017-09-24T02:25:57.078Z,0
2017-09-24T02:26:37.522Z,0
2017-09-24T02:27:18.029Z,0
2017-09-24T02:27:58.405Z,0
2017-09-24T02:30:16.301Z,0
2017-09-24T02:30:56.695Z,0
2017-09-24T02:31:37.259Z,0
2017-09-24T02:32:17.672Z,0
2017-09-24T02:32:58.142Z,0
2017-09-24T02:33:38.561Z,0
2017-09-24T02:34:19.011Z,0
2017-09-24T02:34:59.500Z,0
2017-09-24T02:35:39.957Z,0
2017-09-24T02:36:20.373Z,0
2017-09-24T02:37:00.832Z,0
2017-09-24T02:37:42.230Z,0
2017-09-24T02:38:22.734Z,0
2017-09-24T02:39:03.184Z,0
2017-09-24T02:39:43.609Z,0
2017-09-24T02:40:24.029Z,0
2017-09-24T02:41:04.459Z,0
2017-09-24T02:41:44.910Z,0
2017-09-24T02:42:25.370Z,0
2017-09-24T02:43:05.851Z,0
2017-09-24T02:45:23.974Z,0
2017-09-24T02:46:04.408Z,0
2017-09-24T02:46:44.891Z,0
2017-09-24T02:47:25.330Z,0
2017-09-24T02:48:05.865Z,0
2017-09-24T02:48:46.246Z,0
2017-09-24T02:49:26.698Z,0
2017-09-24T02:50:07.129Z,0
2017-09-24T02:50:47.579Z,0
2017-09-24T02:51:28.064Z,0
2017-09-24T02:52:08.489Z,0
2017-09-24T02:52:48.937Z,0
2017-09-24T02:53:29.347Z,0
2017-09-24T02:54:09.772Z,0
2017-09-24T02:54:50.220Z,0
2017-09-24T02:55:30.705Z,0
2017-09-24T02:56:11.152Z,0
2017-09-24T02:56:51.613Z,0
2017-09-24T02:57:32.033Z,0
2017-09-24T02:58:12.490Z,0
2017-09-24T02:58:52.939Z,0
2017-09-24T02:59:33.407Z,0
2017-09-24T03:00:13.801Z,0
2017-09-24T03:00:54.247Z,0
2017-09-24T03:01:34.677Z,0
2017-09-24T03:02:15.142Z,0
2017-09-24T03:02:55.660Z,0
2017-09-24T03:03:36.024Z,0
2017-09-24T03:04:16.449Z,0
2017-09-24T03:04:56.887Z,0
2017-09-24T03:05:37.323Z,0
2017-09-24T03:06:17.792Z,0
2017-09-24T03:06:58.245Z,0
2017-09-24T03:07:38.669Z,0
2017-09-24T03:08:19.125Z,0
2017-09-24T03:08:59.617Z,0
2017-09-24T03:09:40.035Z,0
2017-09-24T03:10:20.562Z,0
2017-09-24T03:11:00.959Z,0
2017-09-24T03:11:41.404Z,0
2017-09-24T03:12:21.851Z,0
2017-09-24T03:13:02.302Z,0
2017-09-24T03:13:42.744Z,0
2017-09-24T03:14:23.194Z,0
2017-09-24T03:15:03.625Z,0
2017-09-24T03:15:44.037Z,0
2017-09-24T03:16:24.492Z,0
2017-09-24T03:17:04.910Z,0
2017-09-24T03:17:45.463Z,0
2017-09-24T03:18:25.765Z,0
2017-09-24T03:19:06.203Z,0
2017-09-24T03:19:46.684Z,0
2017-09-24T03:20:27.140Z,0
2017-09-24T03:21:07.570Z,0
2017-09-24T03:21:48.015Z,0
2017-09-24T03:22:28.483Z,0
2017-09-24T03:24:46.206Z,0
2017-09-24T03:25:26.648Z,0
2017-09-24T03:26:07.244Z,0
2017-09-24T03:26:47.723Z,0
2017-09-24T03:27:28.245Z,0
2017-09-24T03:28:08.597Z,0
2017-09-24T03:28:49.078Z,0
2017-09-24T03:29:29.549Z,0
2017-09-24T03:30:10.050Z,0
2017-09-24T03:30:50.454Z,0
2017-09-24T03:31:30.944Z,0
2017-09-24T03:33:43.634Z,0
2017-09-24T03:34:24.060Z,0
2017-09-24T03:35:04.493Z,0
2017-09-24T03:35:44.897Z,0
2017-09-24T03:36:25.387Z,0
2017-09-24T03:37:05.807Z,0
2017-09-24T03:37:46.305Z,0
2017-09-24T03:38:26.760Z,0
2017-09-24T03:39:07.178Z,0
2017-09-24T03:39:47.612Z,0
2017-09-24T03:40:28.065Z,0
2017-09-24T03:41:08.514Z,0
2017-09-24T03:41:48.966Z,0
2017-09-24T03:42:29.388Z,0
2017-09-24T03:43:09.828Z,0
2017-09-24T03:43:50.272Z,0
2017-09-24T03:44:30.725Z,0
2017-09-24T03:45:11.137Z,0
2017-09-24T03:45:51.570Z,0
2017-09-24T03:46:32.012Z,0
2017-09-24T03:47:12.455Z,0
2017-09-24T03:47:52.910Z,0
2017-09-24T03:48:33.381Z,0
2017-09-24T03:49:13.807Z,0
2017-09-24T03:49:54.282Z,0
2017-09-24T03:50:34.720Z,0
2017-09-24T03:51:15.176Z,0
2017-09-24T03:51:55.597Z,0
2017-09-24T03:52:36.036Z,0
2017-09-24T03:53:16.542Z,0
2017-09-24T03:53:57.022Z,0
2017-09-24T03:54:37.464Z,0
2017-09-24T03:55:17.903Z,0
2017-09-24T03:55:58.338Z,0
2017-09-24T03:56:38.822Z,0
2017-09-24T03:57:19.234Z,0
2017-09-24T03:57:59.744Z,0
2017-09-24T03:58:40.117Z,0
2017-09-24T03:59:20.531Z,0
2017-09-24T04:00:01.473Z,0
2017-09-24T04:00:41.946Z,0
2017-09-24T04:01:22.362Z,0
2017-09-24T04:02:02.804Z,0
2017-09-24T04:02:43.265Z,0
2017-09-24T04:03:23.700Z,0
2017-09-24T04:05:56.996Z,0
2017-09-24T04:06:37.248Z,0
2017-09-24T04:07:17.704Z,0
2017-09-24T04:07:58.146Z,0
2017-09-24T04:08:38.584Z,0
2017-09-24T04:09:19.062Z,0
2017-09-24T04:09:59.487Z,0
2017-09-24T04:10:39.908Z,0
2017-09-24T04:11:20.342Z,0
2017-09-24T04:12:00.805Z,0
2017-09-24T04:12:41.267Z,0
2017-09-24T04:13:21.710Z,0
2017-09-24T04:14:02.144Z,0
2017-09-24T04:14:42.597Z,0
2017-09-24T04:15:23.001Z,0
2017-09-24T04:17:40.919Z,0
2017-09-24T04:18:21.279Z,0
2017-09-24T04:19:01.701Z,0
2017-09-24T04:19:42.157Z,0
2017-09-24T04:20:22.583Z,0
2017-09-24T04:22:40.416Z,0
2017-09-24T04:23:20.870Z,0
2017-09-24T04:24:01.335Z,0
2017-09-24T04:24:41.758Z,0
2017-09-24T04:25:22.190Z,0
2017-09-24T04:26:02.648Z,0
2017-09-24T04:26:43.106Z,0
2017-09-24T04:27:23.526Z,0
2017-09-24T04:28:03.969Z,0
2017-09-24T04:28:44.403Z,0
2017-09-24T04:29:24.831Z,0
2017-09-24T04:30:05.308Z,0
2017-09-24T04:30:45.763Z,0
2017-09-24T04:31:26.519Z,0
2017-09-24T04:32:06.981Z,0
2017-09-24T04:32:47.431Z,0
2017-09-24T04:33:27.875Z,0
2017-09-24T04:34:08.312Z,0
2017-09-24T04:34:48.770Z,0
2017-09-24T04:35:29.213Z,0
2017-09-24T04:36:09.715Z,0
2017-09-24T04:36:50.332Z,0
2017-09-24T04:37:30.871Z,0
2017-09-24T04:38:11.311Z,0
2017-09-24T04:38:51.758Z,0
2017-09-24T04:39:32.187Z,0
2017-09-24T04:40:12.628Z,0
2017-09-24T04:40:53.075Z,0
2017-09-24T04:41:33.502Z,0
2017-09-24T04:42:13.939Z,0
2017-09-24T04:42:54.377Z,0
2017-09-24T04:43:34.858Z,0
2017-09-24T04:44:15.309Z,0
2017-09-24T04:44:55.766Z,0
2017-09-24T04:45:36.225Z,0
2017-09-24T04:46:16.650Z,0
2017-09-24T04:46:57.064Z,0
2017-09-24T04:47:37.484Z,4
2017-09-24T04:48:17.932Z,4
2017-09-24T04:48:58.465Z,4
2017-09-24T04:49:38.992Z,4
2017-09-24T04:50:19.454Z,0
2017-09-24T04:52:37.290Z,8
2017-09-24T04:53:17.727Z,4
2017-09-24T04:53:58.144Z,8
2017-09-24T04:54:38.646Z,8
2017-09-24T04:55:19.096Z,8
2017-09-24T04:55:59.558Z,8
2017-09-24T04:56:40.026Z,12
2017-09-24T04:57:20.424Z,12
2017-09-24T04:58:00.934Z,12
2017-09-24T04:58:41.945Z,12
2017-09-24T04:59:22.376Z,16
2017-09-24T05:00:02.818Z,20
2017-09-24T05:00:43.252Z,24
2017-09-24T05:01:23.728Z,24
2017-09-24T05:02:04.175Z,28
2017-09-24T05:02:44.584Z,32
2017-09-24T05:03:24.991Z,36
2017-09-24T05:04:05.423Z,40
2017-09-24T05:04:45.869Z,44
2017-09-24T05:05:26.302Z,48
2017-09-24T05:06:06.758Z,52
2017-09-24T05:06:47.204Z,64
2017-09-24T05:07:27.652Z,68
2017-09-24T05:08:08.119Z,76
2017-09-24T05:08:48.593Z,80
2017-09-24T05:09:29.001Z,92
2017-09-24T05:10:09.505Z,96
2017-09-24T05:10:50.072Z,108
2017-09-24T05:11:30.540Z,116
2017-09-24T05:12:10.967Z,128
2017-09-24T05:12:51.379Z,140
2017-09-24T05:13:31.806Z,152
2017-09-24T05:14:12.288Z,160
2017-09-24T05:14:52.748Z,176
2017-09-24T05:15:33.209Z,184
2017-09-24T05:16:13.650Z,196
2017-09-24T05:16:54.097Z,212
2017-09-24T05:17:34.546Z,228
2017-09-24T05:18:15.036Z,240
2017-09-24T05:18:55.482Z,260
2017-09-24T05:19:35.932Z,276
2017-09-24T05:20:16.466Z,292
2017-09-24T05:20:56.882Z,308
2017-09-24T05:21:37.368Z,324
2017-09-24T05:22:17.830Z,340
2017-09-24T05:22:58.263Z,360
2017-09-24T05:23:38.716Z,380
2017-09-24T05:24:19.147Z,400
2017-09-24T05:24:59.602Z,420
2017-09-24T05:25:40.038Z,440
2017-09-24T05:26:20.521Z,460
2017-09-24T05:28:53.508Z,540
2017-09-24T05:29:33.984Z,564
2017-09-24T05:30:14.429Z,588
2017-09-24T05:30:54.890Z,612
2017-09-24T05:31:35.285Z,632
2017-09-24T05:33:32.863Z,708
2017-09-24T05:34:13.336Z,736
2017-09-24T05:34:53.771Z,760
2017-09-24T05:35:34.284Z,788
2017-09-24T05:36:14.814Z,816
2017-09-24T05:36:55.281Z,844
2017-09-24T05:37:35.807Z,868
2017-09-24T05:38:16.260Z,896
2017-09-24T05:38:56.820Z,928
2017-09-24T05:39:37.497Z,960
2017-09-24T05:40:18.061Z,988
2017-09-24T05:40:58.647Z,1024
2017-09-24T05:41:39.245Z,1052
2017-09-24T05:42:19.714Z,1088
2017-09-24T05:43:00.225Z,1120
2017-09-24T05:43:40.791Z,1152
2017-09-24T05:44:21.334Z,1188
2017-09-24T05:45:01.905Z,1216
2017-09-24T05:45:42.466Z,1252
2017-09-24T05:46:23.114Z,1284
2017-09-24T05:47:03.586Z,1316
2017-09-24T05:47:44.363Z,1352
2017-09-24T05:48:25.088Z,1392
2017-09-24T05:49:05.564Z,1428
2017-09-24T05:49:46.064Z,1468
2017-09-24T05:50:26.532Z,1504
2017-09-24T05:51:06.973Z,1544
2017-09-24T05:51:47.461Z,1588
2017-09-24T05:52:27.930Z,1628
2017-09-24T05:53:08.400Z,1668
2017-09-24T05:53:48.922Z,1708
2017-09-24T05:54:29.328Z,1752
2017-09-24T05:55:09.757Z,1792
2017-09-24T05:55:50.226Z,1836
2017-09-24T05:56:30.653Z,1880
2017-09-24T05:57:11.140Z,1920
2017-09-24T05:57:51.603Z,1964
2017-09-24T05:58:32.068Z,2008
2017-09-24T05:59:12.527Z,2056
2017-09-24T05:59:52.948Z,2100
2017-09-24T06:00:33.368Z,2152
2017-09-24T06:01:13.812Z,2196
2017-09-24T06:03:31.730Z,2344
2017-09-24T06:04:12.184Z,2384
2017-09-24T06:04:52.647Z,2428
2017-09-24T06:05:33.067Z,2476
2017-09-24T06:06:13.526Z,2516
2017-09-24T06:06:53.952Z,2556
2017-09-24T06:07:34.438Z,2604
2017-09-24T06:08:14.958Z,2648
2017-09-24T06:08:55.414Z,2692
2017-09-24T06:09:35.874Z,2744
2017-09-24T06:10:16.318Z,2784
2017-09-24T06:10:56.768Z,2832
2017-09-24T06:11:37.169Z,2872
2017-09-24T06:12:17.664Z,2920
2017-09-24T06:12:58.139Z,2964
2017-09-24T06:13:38.572Z,3008
2017-09-24T06:14:19.000Z,3052
2017-09-24T06:14:59.460Z,3092
2017-09-24T06:15:39.889Z,3132
2017-09-24T06:18:07.798Z,3400
2017-09-24T06:18:48.258Z,3436
2017-09-24T06:19:28.704Z,3464
2017-09-24T06:20:09.093Z,3508
2017-09-24T06:20:49.666Z,3536
2017-09-24T06:21:30.090Z,3560
2017-09-24T06:22:10.547Z,3600
2017-09-24T06:22:50.980Z,3652
2017-09-24T06:23:31.498Z,3700
2017-09-24T06:24:12.037Z,3744
2017-09-24T06:24:52.388Z,3792
2017-09-24T06:25:32.804Z,3840
2017-09-24T06:26:13.237Z,3884
2017-09-24T06:26:53.708Z,3936
2017-09-24T06:27:34.143Z,3980
2017-09-24T06:28:14.577Z,4032
2017-09-24T06:28:55.002Z,4084
2017-09-24T06:29:35.462Z,4140
2017-09-24T06:30:15.935Z,4196
2017-09-24T06:30:56.389Z,4248
2017-09-24T06:31:36.849Z,4296
2017-09-24T06:32:17.269Z,4352
2017-09-24T06:32:57.701Z,4408
2017-09-24T06:33:38.215Z,4460
2017-09-24T06:34:18.869Z,4520
2017-09-24T06:34:59.339Z,4576
2017-09-24T06:35:39.798Z,4636
2017-09-24T06:36:20.248Z,4692
2017-09-24T06:37:00.650Z,4752
2017-09-24T06:37:41.075Z,4804
2017-09-24T06:38:21.634Z,4860
2017-09-24T06:39:02.857Z,4920
2017-09-24T06:39:43.295Z,4976
2017-09-24T06:40:23.752Z,5024
2017-09-24T06:41:04.196Z,5080
2017-09-24T06:43:32.107Z,5284
2017-09-24T06:44:12.548Z,5328
2017-09-24T06:44:52.980Z,5380
2017-09-24T06:45:33.411Z,5428
2017-09-24T06:46:13.850Z,5472
2017-09-24T06:46:54.287Z,5520
2017-09-24T06:47:34.731Z,5564
2017-09-24T06:48:15.146Z,5616
2017-09-24T06:48:55.595Z,5672
2017-09-24T06:49:36.107Z,5944
2017-09-24T06:50:16.562Z,6360
2017-09-24T06:50:57.018Z,6788
2017-09-24T06:51:37.482Z,7132
2017-09-24T06:52:17.935Z,7244
2017-09-24T06:52:58.390Z,7304
2017-09-24T06:53:38.846Z,7376
2017-09-24T06:54:19.302Z,7440
2017-09-24T06:54:59.712Z,7536
2017-09-24T06:55:40.157Z,7624
2017-09-24T06:56:20.607Z,7704
2017-09-24T06:57:01.077Z,7800
2017-09-24T06:57:41.569Z,7892
2017-09-24T06:59:54.238Z,8212
2017-09-24T07:00:34.691Z,8308
2017-09-24T07:01:15.179Z,8396
2017-09-24T07:01:55.632Z,8484
2017-09-24T07:04:28.669Z,8948
2017-09-24T07:05:09.081Z,9056
2017-09-24T07:05:49.505Z,9196
2017-09-24T07:06:29.958Z,9352
2017-09-24T07:07:10.420Z,9476
2017-09-24T07:07:50.897Z,9604
2017-09-24T07:08:31.301Z,9716
2017-09-24T07:09:11.693Z,9824
2017-09-24T07:09:52.146Z,9908
2017-09-24T07:10:32.585Z,10000
2017-09-24T07:11:13.262Z,10092
2017-09-24T07:11:53.704Z,10188
2017-09-24T07:12:34.144Z,10344
2017-09-24T07:13:14.593Z,10512
2017-09-24T07:13:55.028Z,10700
2017-09-24T07:14:35.465Z,10840
2017-09-24T07:15:15.888Z,10944
2017-09-24T07:15:56.344Z,11052
2017-09-24T07:16:36.782Z,11176
2017-09-24T07:17:17.192Z,11316
2017-09-24T07:17:57.646Z,11452
2017-09-24T07:18:38.092Z,11592
2017-09-24T07:19:18.529Z,11728
2017-09-24T07:19:58.988Z,11780
2017-09-24T07:21:56.686Z,11884
2017-09-24T07:22:37.835Z,11948
2017-09-24T07:23:18.300Z,12004
2017-09-24T07:23:58.743Z,12028
2017-09-24T07:24:39.215Z,12000
2017-09-24T07:25:19.658Z,12000
2017-09-24T07:26:00.141Z,12040
2017-09-24T07:26:40.588Z,12040
2017-09-24T07:27:20.987Z,12084
2017-09-24T07:28:01.422Z,12080
2017-09-24T07:28:41.874Z,12132
2017-09-24T07:29:22.290Z,12340
2017-09-24T07:30:02.763Z,12544
2017-09-24T07:30:43.241Z,12640
2017-09-24T07:31:23.691Z,12792
2017-09-24T07:32:04.149Z,12940
2017-09-24T07:32:44.597Z,13100
2017-09-24T07:33:25.116Z,13256
2017-09-24T07:34:05.490Z,13392
2017-09-24T07:34:45.929Z,13416
2017-09-24T07:35:26.363Z,13004
2017-09-24T07:36:06.799Z,12280
2017-09-24T07:36:47.229Z,11460
2017-09-24T07:39:20.195Z,10212
2017-09-24T07:40:00.677Z,10432
2017-09-24T07:40:41.172Z,11072
2017-09-24T07:41:21.596Z,12016
2017-09-24T07:42:03.039Z,12976
2017-09-24T07:42:43.474Z,13656
2017-09-24T07:43:23.921Z,14156
2017-09-24T07:44:04.325Z,14480
2017-09-24T07:44:44.782Z,14616
2017-09-24T07:45:25.264Z,14636
2017-09-24T07:46:05.718Z,14648
2017-09-24T07:48:23.524Z,14616
2017-09-24T07:49:04.048Z,14492
2017-09-24T07:49:44.445Z,14300
2017-09-24T07:50:24.892Z,14208
2017-09-24T07:51:05.323Z,14184
2017-09-24T07:51:45.757Z,14240
2017-09-24T07:52:26.209Z,14156
2017-09-24T07:53:06.692Z,14084
2017-09-24T07:53:47.139Z,14628
2017-09-24T07:54:27.557Z,15344
2017-09-24T07:55:08.023Z,15536
2017-09-24T07:57:40.982Z,11280
2017-09-24T07:58:21.497Z,11840
2017-09-24T07:59:01.947Z,10624
2017-09-24T07:59:42.373Z,10948
2017-09-24T08:00:22.814Z,10952
2017-09-24T08:01:03.254Z,13700
2017-09-24T08:01:43.699Z,11280
2017-09-24T08:03:41.664Z,12348
2017-09-24T08:04:22.189Z,10816
2017-09-24T08:05:02.599Z,10576
2017-09-24T08:05:43.001Z,11804
2017-09-24T08:06:23.439Z,15360
2017-09-24T08:07:03.877Z,13520
2017-09-24T08:07:44.295Z,23200
2017-09-24T08:08:24.796Z,30048
2017-09-24T08:09:05.237Z,26304
2017-09-24T08:09:45.722Z,20864
2017-09-24T08:10:26.203Z,21280
2017-09-24T08:11:06.676Z,18272
2017-09-24T08:11:47.109Z,20960
2017-09-24T08:12:27.570Z,25056
2017-09-24T08:13:08.022Z,20224
2017-09-24T08:13:48.475Z,17824
2017-09-24T08:14:28.946Z,21120
2017-09-24T08:15:09.443Z,18368
2017-09-24T08:15:49.867Z,18240
2017-09-24T08:18:22.854Z,16944
2017-09-24T08:19:03.341Z,17632
2017-09-24T08:19:43.816Z,16156
2017-09-24T08:20:24.239Z,18240
2017-09-24T08:21:04.724Z,17824
2017-09-24T08:21:45.327Z,18208
2017-09-24T08:23:43.008Z,16448
2017-09-24T08:24:23.466Z,18784
2017-09-24T08:25:03.931Z,18400
2017-09-24T08:25:44.340Z,21152
2017-09-24T08:26:25.649Z,20384
2017-09-24T08:27:06.145Z,17440
2017-09-24T08:27:46.598Z,15104
2017-09-24T08:28:27.065Z,16216
2017-09-24T08:29:07.515Z,23040
2017-09-24T08:29:47.967Z,25792
2017-09-24T08:32:16.016Z,35872
2017-09-24T08:32:56.455Z,38848
2017-09-24T08:33:36.820Z,38912
2017-09-24T08:34:17.265Z,32096
2017-09-24T08:34:57.698Z,40576
2017-09-24T08:35:38.168Z,40288
2017-09-24T08:36:18.609Z,40800
2017-09-24T08:36:59.075Z,36320
2017-09-24T08:37:39.653Z,40288
2017-09-24T08:38:20.089Z,41984
2017-09-24T08:39:00.543Z,42272
2017-09-24T08:39:40.984Z,43616
2017-09-24T08:42:08.976Z,44608
2017-09-24T08:42:49.405Z,40288
2017-09-24T08:43:29.936Z,24320
2017-09-24T08:44:10.395Z,30816
2017-09-24T08:44:51.787Z,33152
2017-09-24T08:45:32.230Z,44480
2017-09-24T08:46:12.684Z,46336
2017-09-24T08:46:53.143Z,43872
2017-09-24T08:47:33.564Z,47616
2017-09-24T08:48:14.051Z,45984
2017-09-24T08:50:42.003Z,43680
2017-09-24T08:51:22.472Z,43104
2017-09-24T08:52:02.990Z,33248
2017-09-24T08:52:43.433Z,26592
2017-09-24T08:53:23.914Z,23808
2017-09-24T08:54:04.371Z,22240
2017-09-24T08:54:44.795Z,21632
2017-09-24T08:55:25.216Z,23264
2017-09-24T08:57:22.874Z,30048
2017-09-24T08:58:03.352Z,23520
2017-09-24T08:58:43.833Z,31520
2017-09-24T08:59:24.282Z,24800
2017-09-24T09:00:04.731Z,24288
2017-09-24T09:00:45.214Z,30912
2017-09-24T09:01:25.776Z,26368
2017-09-24T09:02:06.253Z,32800
2017-09-24T09:02:46.680Z,26688
2017-09-24T09:03:27.132Z,31616
2017-09-24T09:04:07.594Z,42752
2017-09-24T09:04:48.140Z,48096
2017-09-24T09:05:28.579Z,49312
2017-09-24T09:06:09.031Z,46016
2017-09-24T09:06:49.480Z,38112
2017-09-24T09:07:29.933Z,27904
2017-09-24T09:08:10.441Z,23264
2017-09-24T09:08:50.980Z,22880
2017-09-24T09:09:31.382Z,22880
2017-09-24T09:10:11.817Z,22304
2017-09-24T09:10:52.255Z,22560
2017-09-24T09:11:32.714Z,22528
2017-09-24T09:12:13.195Z,22432
2017-09-24T09:12:53.641Z,22304
2017-09-24T09:13:34.151Z,23072
2017-09-24T09:14:14.663Z,26656
2017-09-24T09:14:55.131Z,34432
2017-09-24T09:15:35.576Z,42784
2017-09-24T09:16:16.041Z,45344
2017-09-24T09:16:56.484Z,46752
2017-09-24T09:17:36.916Z,47200
2017-09-24T09:18:17.372Z,47328
2017-09-24T09:18:57.837Z,48512
2017-09-24T09:19:38.850Z,47744
2017-09-24T09:20:19.311Z,47392
2017-09-24T09:20:59.819Z,42912
2017-09-24T09:21:40.269Z,34176
2017-09-24T09:22:20.696Z,27520
2017-09-24T09:23:01.150Z,25184
2017-09-24T09:23:41.611Z,25760
2017-09-24T09:24:22.038Z,25568
2017-09-24T09:25:02.506Z,25696
2017-09-24T09:25:42.987Z,25856
2017-09-24T09:26:23.462Z,25792
2017-09-24T09:28:36.212Z,26528
2017-09-24T09:29:16.723Z,26560
2017-09-24T09:29:57.143Z,26816
2017-09-24T09:30:37.684Z,26752
2017-09-24T09:31:18.109Z,26496
2017-09-24T09:31:58.544Z,26304
2017-09-24T09:32:39.038Z,26240
2017-09-24T09:33:19.498Z,26240
2017-09-24T09:34:00.039Z,26400
2017-09-24T09:34:40.440Z,26304
2017-09-24T09:35:20.889Z,26080
2017-09-24T09:36:01.405Z,26080
2017-09-24T09:36:41.883Z,26048
2017-09-24T09:37:22.290Z,26208
2017-09-24T09:38:02.773Z,26208
2017-09-24T09:38:43.205Z,25664
2017-09-24T09:39:23.657Z,24800
2017-09-24T09:40:04.127Z,24096
2017-09-24T09:40:44.569Z,23968
2017-09-24T09:43:12.488Z,24064
2017-09-24T09:43:52.959Z,24288
2017-09-24T09:44:33.431Z,25632
2017-09-24T09:45:13.976Z,33792
2017-09-24T09:45:54.393Z,44160
2017-09-24T09:46:34.878Z,50144
2017-09-24T09:47:15.581Z,50720
2017-09-24T09:47:56.525Z,50688
2017-09-24T09:48:36.946Z,50400
2017-09-24T09:49:17.383Z,50208
2017-09-24T09:49:57.907Z,51136
2017-09-24T09:50:38.367Z,50720
2017-09-24T09:52:51.180Z,47424
2017-09-24T09:53:31.644Z,48096
2017-09-24T09:54:12.107Z,48000
2017-09-24T09:54:52.555Z,47712
2017-09-24T09:55:32.984Z,48096
2017-09-24T09:57:45.684Z,51904
2017-09-24T09:58:26.163Z,51488
2017-09-24T09:59:07.293Z,52544
2017-09-24T09:59:47.750Z,52768
2017-09-24T10:00:28.216Z,51808
2017-09-24T10:03:02.077Z,53312
2017-09-24T10:03:42.519Z,53984
2017-09-24T10:04:23.077Z,54176
2017-09-24T10:05:03.567Z,54240
2017-09-24T10:05:44.083Z,53568
2017-09-24T10:06:24.580Z,52064
2017-09-24T10:07:05.054Z,49824
2017-09-24T10:07:45.606Z,48512
2017-09-24T10:08:26.051Z,49056
2017-09-24T10:09:06.536Z,48128
2017-09-24T10:09:47.037Z,49216
2017-09-24T10:10:27.486Z,45792
2017-09-24T10:11:07.981Z,42176
2017-09-24T10:11:48.450Z,41856
2017-09-24T10:12:28.906Z,44544
2017-09-24T10:13:09.393Z,44064
2017-09-24T10:13:49.888Z,47840
2017-09-24T10:14:30.356Z,52448
2017-09-24T10:15:10.850Z,53920
2017-09-24T10:15:51.277Z,56480
2017-09-24T10:16:31.719Z,58560
2017-09-24T10:17:13.065Z,58944
2017-09-24T10:17:53.492Z,58912
2017-09-24T10:18:33.951Z,60128
2017-09-24T10:19:14.369Z,61280
2017-09-24T10:19:54.790Z,61024
2017-09-24T10:20:35.238Z,59744
2017-09-24T10:21:15.687Z,60352
2017-09-24T10:21:56.131Z,59808
2017-09-24T10:22:36.571Z,59040
2017-09-24T10:23:17.036Z,59296
2017-09-24T10:23:57.482Z,60768
2017-09-24T10:24:37.928Z,61536
2017-09-24T10:25:18.392Z,62112
2017-09-24T10:25:58.861Z,61024
2017-09-24T10:26:39.269Z,59424
2017-09-24T10:27:19.749Z,57568